createdAt,value
2019-03-01T00:00:01.733Z,17.17
2019-03-01T00:02:29.321Z,24.83
2019-03-01T00:05:09.894Z,18.60
2019-03-01T00:07:48.636Z,20.10
2019-03-01T00:10:30.884Z,19.70
2019-03-01T00:13:08.946Z,16.97
2019-03-01T00:16:03.909Z,20.17
2019-03-01T00:18:51.702Z,19.80
2019-03-01T00:21:28.334Z,21.10
2019-03-01T00:26:12.204Z,17.70
2019-03-01T00:28:48.354Z,18.97
2019-03-01T00:31:23.953Z,18.43
2019-03-01T00:36:07.001Z,19.30
2019-03-01T00:38:49.713Z,19.00
2019-03-01T00:41:25.873Z,17.20
2019-03-01T00:44:07.724Z,21.70
2019-03-01T00:46:34.828Z,20.70
2019-03-01T00:49:01.903Z,21.87
2019-03-01T00:51:28.989Z,22.57
2019-03-01T00:53:56.067Z,19.60
2019-03-01T00:56:23.165Z,20.60
2019-03-01T00:58:50.281Z,20.27
2019-03-01T01:01:17.383Z,19.60
2019-03-01T01:03:44.484Z,23.37
2019-03-01T01:06:11.563Z,23.27
2019-03-01T01:08:38.671Z,21.03
2019-03-01T01:11:05.799Z,20.17
2019-03-01T01:13:32.844Z,20.60
2019-03-01T01:15:59.938Z,20.17
2019-03-01T01:18:27.026Z,22.50
2019-03-01T01:20:54.126Z,20.57
2019-03-01T01:23:21.233Z,19.57
2019-03-01T01:25:48.317Z,21.20
2019-03-01T01:28:15.375Z,20.53
2019-03-01T01:30:42.483Z,23.03
2019-03-01T01:33:09.596Z,20.07
2019-03-01T01:35:36.698Z,19.30
2019-03-01T01:38:03.772Z,21.93
2019-03-01T01:40:30.868Z,22.00
2019-03-01T01:42:57.954Z,23.40
2019-03-01T01:45:25.063Z,20.80
2019-03-01T01:47:52.157Z,21.70
2019-03-01T01:50:19.269Z,22.30
2019-03-01T01:52:46.373Z,21.37
2019-03-01T01:55:13.445Z,19.70
2019-03-01T01:57:40.535Z,20.33
2019-03-01T02:00:08.546Z,19.53
2019-03-01T02:02:35.641Z,20.97
2019-03-01T02:05:02.772Z,19.90
2019-03-01T02:07:29.870Z,19.30
2019-03-01T02:09:56.970Z,19.63
2019-03-01T02:12:24.045Z,21.97
2019-03-01T02:14:51.132Z,20.80
2019-03-01T02:17:18.244Z,22.53
2019-03-01T02:19:45.357Z,19.83
2019-03-01T02:22:12.453Z,20.47
2019-03-01T02:24:39.516Z,23.60
2019-03-01T02:27:16.625Z,18.00
2019-03-01T02:29:43.696Z,19.67
2019-03-01T02:32:10.817Z,18.63
2019-03-01T02:34:37.936Z,20.20
2019-03-01T02:37:05.032Z,21.90
2019-03-01T02:39:32.147Z,18.67
2019-03-01T02:41:59.257Z,21.60
2019-03-01T02:44:26.330Z,20.13
2019-03-01T02:46:53.425Z,20.40
2019-03-01T02:49:20.507Z,19.20
2019-03-01T02:51:47.734Z,25.10
2019-03-01T02:54:14.814Z,21.23
2019-03-01T02:56:41.928Z,19.40
2019-03-01T02:59:09.026Z,22.87
2019-03-01T03:01:36.122Z,23.63
2019-03-01T03:04:03.227Z,20.53
2019-03-01T03:06:38.778Z,18.57
2019-03-01T03:09:06.284Z,23.93
2019-03-01T03:11:33.390Z,19.93
2019-03-01T03:14:00.453Z,22.17
2019-03-01T03:16:27.908Z,20.53
2019-03-01T03:18:54.989Z,19.30
2019-03-01T03:21:22.054Z,20.87
2019-03-01T03:23:49.150Z,20.40
2019-03-01T03:26:16.255Z,21.73
2019-03-01T03:28:43.337Z,18.23
2019-03-01T03:31:10.437Z,19.87
2019-03-01T03:33:37.534Z,20.53
2019-03-01T03:36:04.627Z,22.07
2019-03-01T03:38:31.722Z,20.50
2019-03-01T03:40:58.803Z,20.07
2019-03-01T03:43:25.866Z,20.63
2019-03-01T03:45:52.959Z,18.97
2019-03-01T03:48:20.068Z,20.37
2019-03-01T03:50:47.137Z,19.37
2019-03-01T03:53:14.199Z,19.47
2019-03-01T03:55:41.299Z,21.03
2019-03-01T03:58:08.369Z,19.97
2019-03-01T04:00:35.454Z,19.80
2019-03-01T04:03:02.582Z,23.10
2019-03-01T04:05:29.673Z,22.13
2019-03-01T04:07:56.785Z,19.90
2019-03-01T04:10:23.894Z,19.33
2019-03-01T04:12:51.065Z,23.13
2019-03-01T04:15:18.150Z,20.40
2019-03-01T04:17:45.240Z,20.73
2019-03-01T04:20:13.960Z,22.00
2019-03-01T04:22:41.022Z,21.37
2019-03-01T04:25:08.160Z,20.80
2019-03-01T04:27:35.242Z,21.97
2019-03-01T04:30:02.352Z,19.20
2019-03-01T04:32:29.461Z,20.67
2019-03-01T04:34:56.563Z,18.90
2019-03-01T04:37:23.685Z,22.23
2019-03-01T04:39:50.771Z,21.77
2019-03-01T04:42:17.865Z,20.67
2019-03-01T04:44:44.965Z,21.37
2019-03-01T04:47:12.067Z,22.57
2019-03-01T04:49:39.137Z,21.10
2019-03-01T04:52:17.708Z,19.43
2019-03-01T04:54:44.805Z,23.90
2019-03-01T04:57:11.894Z,24.10
2019-03-01T04:59:38.968Z,22.90
2019-03-01T05:02:06.037Z,25.10
2019-03-01T05:04:33.135Z,20.93
2019-03-01T05:07:00.229Z,20.87
2019-03-01T05:09:27.354Z,24.30
2019-03-01T05:11:54.467Z,23.47
2019-03-01T05:14:21.537Z,22.50
2019-03-01T05:16:48.612Z,26.00
2019-03-01T05:19:15.685Z,22.40
2019-03-01T05:21:42.791Z,23.73
2019-03-01T05:24:09.876Z,23.73
2019-03-01T05:26:36.984Z,22.17
2019-03-01T05:29:04.082Z,19.57
2019-03-01T05:31:31.178Z,23.13
2019-03-01T05:33:58.260Z,21.17
2019-03-01T05:36:25.365Z,23.97
2019-03-01T05:38:52.443Z,22.07
2019-03-01T05:41:19.534Z,22.20
2019-03-01T05:43:46.629Z,21.30
2019-03-01T05:46:13.692Z,21.47
2019-03-01T05:48:40.793Z,20.33
2019-03-01T05:51:07.906Z,20.97
2019-03-01T05:53:35.014Z,23.43
2019-03-01T05:56:02.125Z,23.63
2019-03-01T05:58:31.006Z,19.67
2019-03-01T06:01:01.368Z,24.27
2019-03-01T06:03:39.968Z,22.87
2019-03-01T06:06:07.110Z,20.73
2019-03-01T06:08:45.290Z,22.97
2019-03-01T06:13:27.778Z,21.63
2019-03-01T06:16:20.720Z,21.70
2019-03-01T06:19:03.072Z,23.50
2019-03-01T06:21:41.285Z,20.90
2019-03-01T06:25:23.722Z,21.37
2019-03-01T06:28:06.053Z,25.20
2019-03-01T06:30:51.815Z,19.37
2019-03-01T06:35:28.552Z,23.27
2019-03-01T06:38:07.161Z,21.40
2019-03-01T06:40:49.223Z,21.40
2019-03-01T06:43:30.710Z,24.07
2019-03-01T06:46:10.149Z,21.97
2019-03-01T06:48:45.728Z,22.00
2019-03-01T06:51:18.533Z,23.57
2019-03-01T06:53:45.604Z,23.47
2019-03-01T06:56:12.703Z,21.53
2019-03-01T06:58:43.701Z,21.60
2019-03-01T07:01:13.170Z,22.00
2019-03-01T07:03:40.257Z,23.83
2019-03-01T07:06:07.363Z,19.50
2019-03-01T07:08:34.441Z,22.27
2019-03-01T07:11:01.523Z,23.50
2019-03-01T07:13:28.605Z,22.47
2019-03-01T07:15:55.696Z,25.03
2019-03-01T07:18:22.780Z,21.43
2019-03-01T07:20:49.861Z,23.73
2019-03-01T07:23:16.940Z,24.30
2019-03-01T07:25:44.030Z,20.90
2019-03-01T07:28:11.108Z,23.53
2019-03-01T07:30:38.208Z,21.83
2019-03-01T07:33:05.302Z,24.97
2019-03-01T07:35:32.397Z,24.13
2019-03-01T07:37:59.467Z,22.30
2019-03-01T07:40:26.558Z,22.43
2019-03-01T07:42:53.676Z,21.60
2019-03-01T07:45:20.748Z,21.27
2019-03-01T07:47:47.814Z,22.83
2019-03-01T07:50:14.929Z,21.23
2019-03-01T07:52:42.017Z,20.27
2019-03-01T07:55:09.390Z,23.20
2019-03-01T07:57:36.229Z,23.53
2019-03-01T08:00:04.373Z,22.00
2019-03-01T08:02:31.492Z,22.00
2019-03-01T08:05:00.080Z,21.17
2019-03-01T08:07:25.700Z,22.93
2019-03-01T08:09:54.184Z,22.20
2019-03-01T08:12:19.921Z,22.37
2019-03-01T08:14:47.013Z,24.50
2019-03-01T08:17:14.086Z,23.27
2019-03-01T08:19:41.199Z,25.60
2019-03-01T08:22:08.282Z,21.83
2019-03-01T08:24:35.354Z,18.23
2019-03-01T08:27:06.375Z,22.70
2019-03-01T08:29:30.691Z,23.90
2019-03-01T08:31:56.790Z,20.77
2019-03-01T08:34:23.769Z,20.13
2019-03-01T08:36:50.865Z,21.47
2019-03-01T08:39:17.949Z,21.03
2019-03-01T08:41:45.038Z,21.37
2019-03-01T08:44:12.125Z,21.10
2019-03-01T08:46:41.990Z,23.63
2019-03-01T08:49:10.179Z,20.47
2019-03-01T08:51:34.361Z,23.13
2019-03-01T08:54:02.412Z,21.37
2019-03-01T08:56:30.192Z,20.83
2019-03-01T08:58:57.673Z,21.40
2019-03-01T09:01:25.393Z,20.53
2019-03-01T09:04:00.221Z,19.70
2019-03-01T09:06:27.857Z,21.67
2019-03-01T09:08:55.598Z,23.13
2019-03-01T09:11:23.375Z,23.97
2019-03-01T09:13:51.506Z,21.40
2019-03-01T09:16:18.609Z,20.47
2019-03-01T09:18:46.616Z,18.87
2019-03-01T09:21:13.696Z,21.97
2019-03-01T09:23:40.068Z,20.50
2019-03-01T09:26:07.269Z,21.07
2019-03-01T09:28:38.626Z,21.97
2019-03-01T09:31:01.585Z,24.30
2019-03-01T09:33:28.729Z,24.50
2019-03-01T09:36:00.769Z,22.30
2019-03-01T09:38:34.513Z,25.13
2019-03-01T09:41:04.692Z,21.10
2019-03-01T09:43:28.748Z,23.20
2019-03-01T09:45:55.873Z,22.83
2019-03-01T09:48:23.044Z,23.63
2019-03-01T09:50:50.199Z,21.93
2019-03-01T09:53:17.329Z,21.47
2019-03-01T09:55:44.456Z,20.27
2019-03-01T09:58:11.565Z,23.20
2019-03-01T10:00:40.115Z,24.63
2019-03-01T10:03:07.294Z,22.40
2019-03-01T10:05:34.638Z,21.83
2019-03-01T10:08:01.760Z,26.90
2019-03-01T10:10:28.925Z,21.43
2019-03-01T10:12:56.005Z,22.10
2019-03-01T10:15:23.084Z,25.43
2019-03-01T10:17:50.183Z,24.03
2019-03-01T10:20:17.302Z,24.77
2019-03-01T10:22:44.384Z,23.47
2019-03-01T10:25:12.004Z,25.30
2019-03-01T10:27:39.086Z,28.57
2019-03-01T10:30:10.362Z,24.53
2019-03-01T10:32:37.437Z,25.27
2019-03-01T10:35:05.414Z,24.30
2019-03-01T10:37:32.497Z,26.50
2019-03-01T10:39:59.560Z,23.00
2019-03-01T10:42:26.642Z,28.13
2019-03-01T10:44:53.713Z,21.67
2019-03-01T10:47:20.801Z,29.87
2019-03-01T10:49:47.905Z,26.67
2019-03-01T10:52:14.977Z,28.10
2019-03-01T10:54:42.084Z,27.67
2019-03-01T10:57:09.174Z,27.93
2019-03-01T10:59:36.297Z,26.63
2019-03-01T11:02:03.387Z,31.30
2019-03-01T11:04:30.553Z,26.97
2019-03-01T11:06:57.658Z,29.97
2019-03-01T11:09:24.841Z,29.07
2019-03-01T11:11:51.957Z,28.37
2019-03-01T11:14:19.078Z,30.90
2019-03-01T11:16:46.192Z,31.70
2019-03-01T11:19:13.300Z,33.40
2019-03-01T11:21:40.409Z,29.60
2019-03-01T11:24:07.484Z,31.17
2019-03-01T11:26:34.573Z,33.07
2019-03-01T11:29:01.726Z,31.57
2019-03-01T11:31:28.850Z,31.47
2019-03-01T11:33:55.966Z,32.57
2019-03-01T11:36:23.098Z,32.17
2019-03-01T11:38:50.185Z,32.00
2019-03-01T11:41:17.309Z,32.77
2019-03-01T11:43:44.417Z,35.90
2019-03-01T11:46:11.511Z,34.50
2019-03-01T11:48:38.601Z,31.47
2019-03-01T11:51:05.713Z,34.17
2019-03-01T11:53:32.867Z,35.87
2019-03-01T11:55:59.962Z,36.63
2019-03-01T11:58:27.058Z,33.33
2019-03-01T12:00:54.165Z,37.50
2019-03-01T12:03:21.261Z,34.50
2019-03-01T12:05:48.413Z,31.23
2019-03-01T12:08:15.530Z,34.83
2019-03-01T12:10:42.624Z,35.80
2019-03-01T12:13:09.764Z,36.87
2019-03-01T12:15:36.886Z,32.47
2019-03-01T12:18:03.997Z,32.20
2019-03-01T12:20:31.129Z,32.13
2019-03-01T12:22:58.237Z,32.13
2019-03-01T12:25:25.361Z,34.97
2019-03-01T12:27:52.472Z,33.33
2019-03-01T12:30:20.484Z,33.40
2019-03-01T12:32:47.610Z,32.90
2019-03-01T12:35:14.716Z,30.30
2019-03-01T12:37:41.792Z,35.30
2019-03-01T12:40:14.190Z,34.43
2019-03-01T12:42:41.275Z,26.83
2019-03-01T12:45:09.536Z,29.47
2019-03-01T12:47:36.662Z,28.67
2019-03-01T12:50:04.102Z,31.77
2019-03-01T12:52:31.186Z,29.97
2019-03-01T12:54:58.298Z,28.17
2019-03-01T12:57:25.401Z,31.60
2019-03-01T12:59:52.513Z,27.47
2019-03-01T13:02:19.584Z,30.93
2019-03-01T13:04:49.845Z,29.67
2019-03-01T13:07:14.032Z,29.43
2019-03-01T13:09:40.917Z,27.53
2019-03-01T13:12:08.016Z,29.07
2019-03-01T13:14:36.777Z,26.80
2019-03-01T13:17:02.641Z,25.13
2019-03-01T13:19:29.338Z,26.87
2019-03-01T13:21:56.446Z,23.00
2019-03-01T13:24:23.541Z,22.23
2019-03-01T13:26:51.141Z,25.57
2019-03-01T13:29:19.152Z,24.93
2019-03-01T13:31:47.157Z,25.37
2019-03-01T13:34:14.502Z,23.97
2019-03-01T13:36:41.344Z,23.73
2019-03-01T13:39:10.459Z,22.57
2019-03-01T13:41:39.133Z,23.90
2019-03-01T13:44:06.293Z,20.57
2019-03-01T13:46:33.554Z,21.47
2019-03-01T13:49:00.553Z,20.17
2019-03-01T13:51:27.649Z,20.17
2019-03-01T13:53:54.764Z,17.20
2019-03-01T13:56:21.876Z,18.00
2019-03-01T13:58:48.956Z,21.47
2019-03-01T14:01:16.035Z,18.03
2019-03-01T14:03:43.117Z,18.60
2019-03-01T14:06:10.212Z,16.07
2019-03-01T14:08:37.533Z,16.33
2019-03-01T14:11:04.423Z,20.10
2019-03-01T14:13:31.565Z,16.97
2019-03-01T14:15:58.612Z,15.53
2019-03-01T14:18:27.392Z,14.37
2019-03-01T14:20:54.416Z,16.03
2019-03-01T14:23:21.269Z,13.73
2019-03-01T14:25:47.061Z,15.43
2019-03-01T14:28:14.146Z,16.70
2019-03-01T14:30:41.241Z,13.30
2019-03-01T14:33:08.322Z,13.43
2019-03-01T14:35:35.426Z,14.00
2019-03-01T14:38:02.548Z,12.40
2019-03-01T14:40:29.636Z,14.70
2019-03-01T14:42:56.713Z,13.80
2019-03-01T14:45:25.653Z,14.27
2019-03-01T14:47:51.254Z,14.97
2019-03-01T14:50:19.864Z,11.00
2019-03-01T14:52:46.952Z,12.13
2019-03-01T14:55:19.842Z,12.63
2019-03-01T14:57:49.496Z,12.97
2019-03-01T15:00:25.897Z,11.43
2019-03-01T15:03:00.029Z,8.93
2019-03-01T15:05:27.102Z,12.13
2019-03-01T15:07:54.203Z,11.67
2019-03-01T15:10:21.338Z,10.90
2019-03-01T15:12:48.399Z,10.17
2019-03-01T15:15:15.481Z,11.73
2019-03-01T15:17:44.000Z,9.07
2019-03-01T15:20:10.677Z,10.80
2019-03-01T15:22:37.769Z,10.57
2019-03-01T15:25:08.046Z,8.17
2019-03-01T15:27:32.085Z,9.80
2019-03-01T15:29:59.161Z,9.07
2019-03-01T15:32:26.265Z,7.47
2019-03-01T15:34:53.329Z,9.40
2019-03-01T15:37:20.405Z,9.20
2019-03-01T15:39:47.508Z,7.40
2019-03-01T15:42:17.471Z,9.73
2019-03-01T15:44:41.710Z,7.00
2019-03-01T15:47:08.853Z,8.67
2019-03-01T15:49:35.952Z,7.27
2019-03-01T15:52:03.024Z,6.83
2019-03-01T15:54:32.434Z,6.30
2019-03-01T15:56:57.222Z,6.50
2019-03-01T15:59:24.313Z,6.10
2019-03-01T16:01:51.401Z,7.00
2019-03-01T16:04:18.480Z,8.60
2019-03-01T16:06:45.548Z,6.43
2019-03-01T16:09:15.004Z,6.33
2019-03-01T16:11:42.096Z,5.73
2019-03-01T16:14:09.218Z,6.13
2019-03-01T16:16:36.290Z,8.17
2019-03-01T16:19:03.386Z,6.47
2019-03-01T16:21:30.493Z,6.03
2019-03-01T16:23:57.585Z,4.53
2019-03-01T16:26:29.886Z,5.70
2019-03-01T16:28:51.824Z,7.07
2019-03-01T16:31:18.916Z,4.50
2019-03-01T16:33:46.024Z,5.07
2019-03-01T16:36:23.360Z,6.80
2019-03-01T16:38:49.132Z,4.67
2019-03-01T16:41:16.089Z,3.43
2019-03-01T16:43:43.161Z,7.33
2019-03-01T16:46:10.233Z,5.03
2019-03-01T16:48:37.317Z,4.30
2019-03-01T16:51:04.420Z,3.97
2019-03-01T16:53:31.522Z,5.30
2019-03-01T16:55:59.218Z,5.27
2019-03-01T16:58:28.223Z,5.63
2019-03-01T17:00:53.615Z,4.63
2019-03-01T17:03:20.225Z,6.90
2019-03-01T17:05:47.617Z,6.87
2019-03-01T17:08:14.841Z,4.67
2019-03-01T17:10:42.066Z,3.93
2019-03-01T17:13:09.287Z,4.80
2019-03-01T17:15:36.609Z,5.13
2019-03-01T17:18:03.887Z,6.23
2019-03-01T17:20:31.149Z,3.17
2019-03-01T17:22:59.729Z,4.30
2019-03-01T17:25:26.914Z,4.70
2019-03-01T17:27:52.877Z,4.33
2019-03-01T17:30:20.641Z,3.90
2019-03-01T17:32:47.834Z,3.77
2019-03-01T17:35:15.095Z,5.43
2019-03-01T17:37:42.481Z,4.43
2019-03-01T17:40:09.965Z,4.67
2019-03-01T17:42:37.168Z,3.13
2019-03-01T17:45:04.534Z,4.77
2019-03-01T17:47:31.790Z,5.33
2019-03-01T17:49:59.043Z,4.17
2019-03-01T17:52:26.240Z,5.50
2019-03-01T17:54:53.397Z,3.97
2019-03-01T17:57:20.529Z,2.90
2019-03-01T17:59:48.354Z,7.67
2019-03-01T18:02:15.809Z,3.67
2019-03-01T18:04:42.289Z,4.23
2019-03-01T18:07:09.484Z,4.53
2019-03-01T18:09:36.892Z,4.27
2019-03-01T18:12:04.090Z,6.27
2019-03-01T18:14:33.751Z,4.93
2019-03-01T18:17:00.569Z,4.07
2019-03-01T18:19:26.784Z,4.03
2019-03-01T18:21:53.134Z,3.90
2019-03-01T18:24:20.396Z,4.30
2019-03-01T18:26:47.645Z,4.07
2019-03-01T18:29:14.750Z,5.93
2019-03-01T18:31:41.866Z,5.17
2019-03-01T18:34:08.972Z,3.53
2019-03-01T18:36:36.077Z,3.23
2019-03-01T18:39:06.904Z,3.77
2019-03-01T18:41:33.628Z,4.83
2019-03-01T18:44:00.716Z,5.70
2019-03-01T18:46:27.862Z,4.30
2019-03-01T18:48:54.952Z,3.40
2019-03-01T18:51:22.067Z,4.03
2019-03-01T18:53:49.198Z,3.50
2019-03-01T18:56:16.323Z,4.10
2019-03-01T18:58:45.665Z,3.63
2019-03-01T19:01:11.693Z,3.03
2019-03-01T19:03:40.242Z,3.73
2019-03-01T19:06:05.432Z,3.13
2019-03-01T19:08:32.532Z,5.27
2019-03-01T19:11:02.611Z,4.00
2019-03-01T19:13:26.780Z,3.67
2019-03-01T19:15:54.751Z,4.63
2019-03-01T19:18:21.003Z,2.93
2019-03-01T19:20:48.260Z,4.63
2019-03-01T19:23:15.376Z,2.90
2019-03-01T19:25:42.482Z,5.37
2019-03-01T19:28:09.576Z,3.77
2019-03-01T19:30:36.703Z,3.97
2019-03-01T19:33:03.838Z,3.97
2019-03-01T19:35:30.925Z,4.60
2019-03-01T19:37:58.071Z,2.80
2019-03-01T19:40:25.197Z,5.20
2019-03-01T19:42:52.333Z,3.30
2019-03-01T19:45:19.433Z,5.00
2019-03-01T19:47:46.536Z,4.67
2019-03-01T19:50:15.389Z,3.90
2019-03-01T19:52:43.393Z,4.90
2019-03-01T19:55:11.768Z,6.33
2019-03-01T19:57:37.260Z,4.20
2019-03-01T20:00:07.017Z,3.90
2019-03-01T20:02:34.138Z,4.17
2019-03-01T20:05:01.242Z,3.33
2019-03-01T20:07:28.351Z,3.73
2019-03-01T20:09:57.368Z,3.97
2019-03-01T20:12:22.589Z,3.93
2019-03-01T20:14:49.694Z,4.23
2019-03-01T20:17:16.756Z,6.33
2019-03-01T20:19:43.858Z,5.10
2019-03-01T20:22:11.042Z,3.73
2019-03-01T20:24:40.410Z,3.17
2019-03-01T20:27:05.317Z,4.47
2019-03-01T20:29:32.443Z,3.13
2019-03-01T20:31:59.550Z,2.73
2019-03-01T20:34:26.665Z,3.23
2019-03-01T20:36:53.890Z,4.27
2019-03-01T20:39:20.890Z,3.87
2019-03-01T20:41:48.041Z,3.07
2019-03-01T20:44:18.654Z,5.20
2019-03-01T20:46:43.963Z,3.10
2019-03-01T20:49:09.358Z,4.27
2019-03-01T20:51:36.469Z,4.20
2019-03-01T20:54:03.554Z,2.70
2019-03-01T20:56:30.668Z,2.67
2019-03-01T20:58:57.768Z,3.37
2019-03-01T21:01:24.868Z,6.00
2019-03-01T21:03:51.940Z,3.03
2019-03-01T21:06:19.793Z,4.57
2019-03-01T21:08:46.157Z,4.03
2019-03-01T21:11:13.261Z,4.07
2019-03-01T21:13:40.385Z,4.20
2019-03-01T21:16:07.553Z,3.70
2019-03-01T21:18:34.841Z,3.87
2019-03-01T21:21:01.818Z,2.20
2019-03-01T21:23:28.968Z,3.57
2019-03-01T21:25:56.072Z,3.03
2019-03-01T21:28:23.195Z,4.33
2019-03-01T21:30:50.317Z,4.07
2019-03-01T21:33:17.431Z,4.40
2019-03-01T21:35:47.738Z,3.03
2019-03-01T21:38:13.827Z,2.63
2019-03-01T21:40:38.816Z,2.53
2019-03-01T21:43:05.894Z,4.57
2019-03-01T21:45:33.002Z,3.50
2019-03-01T21:48:00.114Z,3.90
2019-03-01T21:50:27.216Z,3.03
2019-03-01T21:52:54.305Z,2.70
2019-03-01T21:55:24.829Z,3.80
2019-03-01T21:57:48.609Z,3.57
2019-03-01T22:00:17.790Z,4.20
2019-03-01T22:02:44.890Z,2.60
2019-03-01T22:05:13.548Z,4.40
2019-03-01T22:07:39.147Z,2.53
2019-03-01T22:10:07.881Z,2.63
2019-03-01T22:12:35.002Z,2.37
2019-03-01T22:15:02.150Z,2.77
2019-03-01T22:17:29.261Z,2.93
2019-03-01T22:19:56.337Z,2.33
2019-03-01T22:22:23.445Z,4.87
2019-03-01T22:24:50.555Z,2.73
2019-03-01T22:27:17.745Z,2.93
2019-03-01T22:29:47.259Z,2.80
2019-03-01T22:32:11.982Z,3.47
2019-03-01T22:34:39.092Z,3.27
2019-03-01T22:37:06.251Z,5.23
2019-03-01T22:39:33.355Z,3.07
2019-03-01T22:42:00.444Z,4.43
2019-03-01T22:44:27.570Z,3.57
2019-03-01T22:46:57.851Z,3.70
2019-03-01T22:49:21.785Z,2.50
2019-03-01T22:51:49.635Z,2.30
2019-03-01T22:54:17.819Z,2.80
2019-03-01T22:56:44.716Z,4.53
2019-03-01T22:59:11.900Z,3.07
2019-03-01T23:01:41.233Z,2.93
2019-03-01T23:04:08.365Z,3.07
2019-03-01T23:06:35.478Z,3.27
2019-03-01T23:09:04.301Z,2.40
2019-03-01T23:11:32.497Z,3.63
2019-03-01T23:13:58.533Z,3.47
2019-03-01T23:16:25.609Z,4.30
2019-03-01T23:18:56.615Z,2.70
2019-03-01T23:21:19.820Z,4.03
2019-03-01T23:23:46.964Z,2.63
2019-03-01T23:26:14.040Z,2.67
2019-03-01T23:28:43.724Z,3.63
2019-03-01T23:31:08.269Z,3.47
2019-03-01T23:33:35.417Z,3.60
2019-03-01T23:36:02.505Z,3.10
2019-03-01T23:38:29.636Z,4.90
2019-03-01T23:40:56.691Z,2.97
2019-03-01T23:43:23.789Z,3.33
2019-03-01T23:45:53.764Z,3.33
2019-03-01T23:48:17.990Z,3.03
2019-03-01T23:50:45.084Z,4.80
2019-03-01T23:53:12.188Z,2.83
2019-03-01T23:55:39.265Z,3.03
2019-03-01T23:58:06.431Z,4.87
